Bowral, Australia
Current Conditions -  °F | °C
As of 1:00 PM on Friday 28 Nov 2014 (Local Time) from YSNW Reporting Station
Clear Clear  
Wind Chill: 72°   Ceiling: Unl
Heat Index: 72°   Visibility: 6mi
Dew Point: 50°   Wind: 7mph
Humidity: 46%   Direction: 70°ENE
Pressure: 30.18"   Gusts: NA
Location:  34.48°S, 150.42°E
Report Text: YSNW 280200Z AUTO 07006KT 9999 // NCD 22/10 Q1022
Loading
Personal Weather Stations






























Interactive Weather Map New forecast layout! Learn more

10-Day Weather Forecast

Advertisements
Track Severe Weather on mobile